sensor_id;sensor_type;location;lat;lon;timestamp;P1;durP1;ratioP1;P2;durP2;ratioP2
12900;SDS011;6518;50.930;5.344;2023-07-13T00:02:04;3.63;;;1.15;;
12900;SDS011;6518;50.930;5.344;2023-07-13T00:04:31;4.45;;;1.50;;
12900;SDS011;6518;50.930;5.344;2023-07-13T00:06:58;4.35;;;1.33;;
12900;SDS011;6518;50.930;5.344;2023-07-13T00:09:25;5.10;;;1.52;;
12900;SDS011;6518;50.930;5.344;2023-07-13T00:11:53;5.15;;;1.33;;
12900;SDS011;6518;50.930;5.344;2023-07-13T00:14:22;4.47;;;1.60;;
12900;SDS011;6518;50.930;5.344;2023-07-13T00:16:51;5.35;;;1.40;;
12900;SDS011;6518;50.930;5.344;2023-07-13T00:19:18;5.10;;;1.38;;
12900;SDS011;6518;50.930;5.344;2023-07-13T00:21:45;6.15;;;1.67;;
12900;SDS011;6518;50.930;5.344;2023-07-13T00:24:16;4.85;;;1.67;;
12900;SDS011;6518;50.930;5.344;2023-07-13T00:26:48;5.38;;;1.23;;
12900;SDS011;6518;50.930;5.344;2023-07-13T00:29:15;4.25;;;1.40;;
12900;SDS011;6518;50.930;5.344;2023-07-13T00:31:42;5.40;;;1.92;;
12900;SDS011;6518;50.930;5.344;2023-07-13T00:34:11;4.57;;;1.88;;
12900;SDS011;6518;50.930;5.344;2023-07-13T00:36:38;7.35;;;1.63;;
12900;SDS011;6518;50.930;5.344;2023-07-13T00:39:05;4.88;;;1.60;;
12900;SDS011;6518;50.930;5.344;2023-07-13T00:41:32;3.88;;;1.70;;
12900;SDS011;6518;50.930;5.344;2023-07-13T00:43:59;4.47;;;1.45;;
12900;SDS011;6518;50.930;5.344;2023-07-13T00:46:26;4.25;;;1.10;;
12900;SDS011;6518;50.930;5.344;2023-07-13T00:48:54;5.95;;;1.70;;
12900;SDS011;6518;50.930;5.344;2023-07-13T00:51:28;6.63;;;1.60;;
12900;SDS011;6518;50.930;5.344;2023-07-13T00:53:59;4.85;;;1.70;;
12900;SDS011;6518;50.930;5.344;2023-07-13T00:56:30;2.53;;;1.17;;
12900;SDS011;6518;50.930;5.344;2023-07-13T00:58:59;3.50;;;1.35;;
12900;SDS011;6518;50.930;5.344;2023-07-13T01:01:26;2.65;;;1.40;;
12900;SDS011;6518;50.930;5.344;2023-07-13T01:03:53;6.10;;;1.55;;
12900;SDS011;6518;50.930;5.344;2023-07-13T01:06:22;7.22;;;1.50;;
12900;SDS011;6518;50.930;5.344;2023-07-13T01:08:50;6.45;;;1.77;;
12900;SDS011;6518;50.930;5.344;2023-07-13T01:11:20;4.10;;;1.30;;
12900;SDS011;6518;50.930;5.344;2023-07-13T01:13:48;5.50;;;1.40;;
12900;SDS011;6518;50.930;5.344;2023-07-13T01:16:22;6.50;;;1.88;;
12900;SDS011;6518;50.930;5.344;2023-07-13T01:18:51;3.00;;;1.42;;
12900;SDS011;6518;50.930;5.344;2023-07-13T01:21:20;5.63;;;1.70;;
12900;SDS011;6518;50.930;5.344;2023-07-13T01:23:47;4.25;;;1.50;;
12900;SDS011;6518;50.930;5.344;2023-07-13T01:26:14;3.88;;;1.83;;
12900;SDS011;6518;50.930;5.344;2023-07-13T01:28:40;4.32;;;1.50;;
12900;SDS011;6518;50.930;5.344;2023-07-13T01:31:07;7.10;;;1.73;;
12900;SDS011;6518;50.930;5.344;2023-07-13T01:33:36;6.20;;;1.85;;
12900;SDS011;6518;50.930;5.344;2023-07-13T01:36:03;8.30;;;1.80;;
12900;SDS011;6518;50.930;5.344;2023-07-13T01:38:32;8.88;;;1.58;;
12900;SDS011;6518;50.930;5.344;2023-07-13T01:40:59;6.55;;;1.73;;
12900;SDS011;6518;50.930;5.344;2023-07-13T01:43:27;10.32;;;1.83;;
12900;SDS011;6518;50.930;5.344;2023-07-13T01:45:53;6.85;;;1.85;;
12900;SDS011;6518;50.930;5.344;2023-07-13T01:48:20;4.80;;;1.42;;
12900;SDS011;6518;50.930;5.344;2023-07-13T01:50:47;7.55;;;1.80;;
12900;SDS011;6518;50.930;5.344;2023-07-13T01:53:15;9.45;;;1.80;;
12900;SDS011;6518;50.930;5.344;2023-07-13T01:55:43;5.32;;;1.95;;
12900;SDS011;6518;50.930;5.344;2023-07-13T01:58:10;5.78;;;1.75;;
12900;SDS011;6518;50.930;5.344;2023-07-13T02:00:37;6.47;;;1.60;;
12900;SDS011;6518;50.930;5.344;2023-07-13T02:03:03;5.78;;;1.70;;
12900;SDS011;6518;50.930;5.344;2023-07-13T02:05:30;5.72;;;1.80;;
12900;SDS011;6518;50.930;5.344;2023-07-13T02:07:58;4.88;;;1.77;;
12900;SDS011;6518;50.930;5.344;2023-07-13T02:10:25;6.82;;;1.77;;
12900;SDS011;6518;50.930;5.344;2023-07-13T02:12:54;6.40;;;1.75;;
12900;SDS011;6518;50.930;5.344;2023-07-13T02:15:21;6.28;;;1.77;;
12900;SDS011;6518;50.930;5.344;2023-07-13T02:17:48;8.80;;;2.33;;
12900;SDS011;6518;50.930;5.344;2023-07-13T02:20:15;6.50;;;2.00;;
12900;SDS011;6518;50.930;5.344;2023-07-13T02:22:42;7.80;;;1.63;;
12900;SDS011;6518;50.930;5.344;2023-07-13T02:25:09;5.03;;;1.50;;
12900;SDS011;6518;50.930;5.344;2023-07-13T02:27:36;5.15;;;1.45;;
12900;SDS011;6518;50.930;5.344;2023-07-13T02:30:04;5.30;;;1.65;;
12900;SDS011;6518;50.930;5.344;2023-07-13T02:32:32;6.65;;;2.10;;
12900;SDS011;6518;50.930;5.344;2023-07-13T02:35:00;7.68;;;1.92;;
12900;SDS011;6518;50.930;5.344;2023-07-13T02:37:27;7.28;;;2.20;;
12900;SDS011;6518;50.930;5.344;2023-07-13T02:39:54;5.53;;;1.90;;
12900;SDS011;6518;50.930;5.344;2023-07-13T02:42:22;5.75;;;1.92;;
12900;SDS011;6518;50.930;5.344;2023-07-13T02:44:48;6.95;;;1.80;;
12900;SDS011;6518;50.930;5.344;2023-07-13T02:47:17;7.13;;;2.00;;
12900;SDS011;6518;50.930;5.344;2023-07-13T02:49:44;6.93;;;2.05;;
12900;SDS011;6518;50.930;5.344;2023-07-13T02:52:11;6.03;;;1.80;;
12900;SDS011;6518;50.930;5.344;2023-07-13T02:54:37;7.95;;;2.25;;
12900;SDS011;6518;50.930;5.344;2023-07-13T02:57:05;6.55;;;1.73;;
12900;SDS011;6518;50.930;5.344;2023-07-13T02:59:32;7.28;;;1.98;;
12900;SDS011;6518;50.930;5.344;2023-07-13T03:02:00;9.27;;;2.22;;
12900;SDS011;6518;50.930;5.344;2023-07-13T03:04:29;7.35;;;2.05;;
12900;SDS011;6518;50.930;5.344;2023-07-13T03:06:55;8.55;;;1.98;;
12900;SDS011;6518;50.930;5.344;2023-07-13T03:09:23;7.90;;;2.55;;
12900;SDS011;6518;50.930;5.344;2023-07-13T03:11:51;4.88;;;1.85;;
12900;SDS011;6518;50.930;5.344;2023-07-13T03:14:19;5.05;;;1.77;;
12900;SDS011;6518;50.930;5.344;2023-07-13T03:16:47;8.13;;;2.35;;
12900;SDS011;6518;50.930;5.344;2023-07-13T03:19:14;3.67;;;1.95;;
12900;SDS011;6518;50.930;5.344;2023-07-13T03:21:42;5.05;;;2.03;;
12900;SDS011;6518;50.930;5.344;2023-07-13T03:24:09;7.57;;;2.00;;
12900;SDS011;6518;50.930;5.344;2023-07-13T03:26:36;4.40;;;1.85;;
12900;SDS011;6518;50.930;5.344;2023-07-13T03:29:04;8.07;;;2.38;;
12900;SDS011;6518;50.930;5.344;2023-07-13T03:31:32;7.30;;;2.10;;
12900;SDS011;6518;50.930;5.344;2023-07-13T03:34:01;7.90;;;2.40;;
12900;SDS011;6518;50.930;5.344;2023-07-13T03:36:29;11.38;;;2.55;;
12900;SDS011;6518;50.930;5.344;2023-07-13T03:39:00;8.77;;;1.90;;
12900;SDS011;6518;50.930;5.344;2023-07-13T03:41:29;8.20;;;1.95;;
12900;SDS011;6518;50.930;5.344;2023-07-13T03:43:56;7.60;;;2.30;;
12900;SDS011;6518;50.930;5.344;2023-07-13T03:46:23;7.93;;;2.25;;
12900;SDS011;6518;50.930;5.344;2023-07-13T03:48:50;8.85;;;2.00;;
12900;SDS011;6518;50.930;5.344;2023-07-13T03:51:18;7.88;;;2.50;;
12900;SDS011;6518;50.930;5.344;2023-07-13T03:53:46;6.07;;;1.85;;
12900;SDS011;6518;50.930;5.344;2023-07-13T03:56:15;10.45;;;2.30;;
12900;SDS011;6518;50.930;5.344;2023-07-13T03:58:44;7.30;;;2.20;;
12900;SDS011;6518;50.930;5.344;2023-07-13T04:01:13;8.77;;;2.20;;
12900;SDS011;6518;50.930;5.344;2023-07-13T04:03:42;6.75;;;2.17;;
12900;SDS011;6518;50.930;5.344;2023-07-13T04:06:13;6.70;;;2.40;;
12900;SDS011;6518;50.930;5.344;2023-07-13T04:08:46;8.70;;;2.55;;
12900;SDS011;6518;50.930;5.344;2023-07-13T04:11:16;6.15;;;2.28;;
12900;SDS011;6518;50.930;5.344;2023-07-13T04:13:43;6.40;;;2.20;;
12900;SDS011;6518;50.930;5.344;2023-07-13T04:16:11;10.25;;;3.15;;
12900;SDS011;6518;50.930;5.344;2023-07-13T04:18:38;7.05;;;2.15;;
12900;SDS011;6518;50.930;5.344;2023-07-13T04:21:06;6.32;;;2.13;;
12900;SDS011;6518;50.930;5.344;2023-07-13T04:23:34;7.38;;;2.40;;
12900;SDS011;6518;50.930;5.344;2023-07-13T04:26:01;5.93;;;2.35;;
12900;SDS011;6518;50.930;5.344;2023-07-13T04:28:30;9.43;;;2.72;;
12900;SDS011;6518;50.930;5.344;2023-07-13T04:30:57;9.50;;;2.92;;
12900;SDS011;6518;50.930;5.344;2023-07-13T04:33:24;9.70;;;2.80;;
12900;SDS011;6518;50.930;5.344;2023-07-13T04:35:52;9.02;;;2.70;;
12900;SDS011;6518;50.930;5.344;2023-07-13T04:38:21;9.18;;;2.78;;
12900;SDS011;6518;50.930;5.344;2023-07-13T04:40:49;7.97;;;2.75;;
12900;SDS011;6518;50.930;5.344;2023-07-13T04:43:16;6.38;;;2.70;;
12900;SDS011;6518;50.930;5.344;2023-07-13T04:45:46;13.25;;;2.75;;
12900;SDS011;6518;50.930;5.344;2023-07-13T04:48:13;6.80;;;2.53;;
12900;SDS011;6518;50.930;5.344;2023-07-13T04:50:40;7.13;;;3.08;;
12900;SDS011;6518;50.930;5.344;2023-07-13T04:53:06;9.25;;;2.33;;
12900;SDS011;6518;50.930;5.344;2023-07-13T04:55:33;7.20;;;2.75;;
12900;SDS011;6518;50.930;5.344;2023-07-13T04:58:00;11.52;;;2.53;;
12900;SDS011;6518;50.930;5.344;2023-07-13T05:00:28;9.30;;;2.75;;
12900;SDS011;6518;50.930;5.344;2023-07-13T05:02:57;6.90;;;2.30;;
12900;SDS011;6518;50.930;5.344;2023-07-13T05:05:25;9.40;;;2.70;;
12900;SDS011;6518;50.930;5.344;2023-07-13T05:07:53;9.30;;;2.70;;
12900;SDS011;6518;50.930;5.344;2023-07-13T05:10:20;9.15;;;2.35;;
12900;SDS011;6518;50.930;5.344;2023-07-13T05:12:47;8.98;;;2.70;;
12900;SDS011;6518;50.930;5.344;2023-07-13T05:15:14;8.43;;;3.17;;
12900;SDS011;6518;50.930;5.344;2023-07-13T05:17:45;7.93;;;2.60;;
12900;SDS011;6518;50.930;5.344;2023-07-13T05:20:14;9.35;;;2.75;;
12900;SDS011;6518;50.930;5.344;2023-07-13T05:22:42;9.38;;;3.05;;
12900;SDS011;6518;50.930;5.344;2023-07-13T05:25:09;6.15;;;2.30;;
12900;SDS011;6518;50.930;5.344;2023-07-13T05:27:37;9.13;;;2.90;;
12900;SDS011;6518;50.930;5.344;2023-07-13T05:30:04;11.38;;;3.10;;
12900;SDS011;6518;50.930;5.344;2023-07-13T05:32:35;11.82;;;2.78;;
12900;SDS011;6518;50.930;5.344;2023-07-13T05:35:02;10.02;;;3.00;;
12900;SDS011;6518;50.930;5.344;2023-07-13T05:37:31;9.85;;;3.20;;
12900;SDS011;6518;50.930;5.344;2023-07-13T05:39:58;10.23;;;2.55;;
12900;SDS011;6518;50.930;5.344;2023-07-13T05:42:25;7.28;;;2.60;;
12900;SDS011;6518;50.930;5.344;2023-07-13T05:44:52;11.63;;;2.90;;
12900;SDS011;6518;50.930;5.344;2023-07-13T05:47:19;10.50;;;2.90;;
12900;SDS011;6518;50.930;5.344;2023-07-13T05:49:46;10.45;;;3.13;;
12900;SDS011;6518;50.930;5.344;2023-07-13T05:52:12;12.48;;;3.03;;
12900;SDS011;6518;50.930;5.344;2023-07-13T05:54:41;17.92;;;3.00;;
12900;SDS011;6518;50.930;5.344;2023-07-13T05:57:08;8.52;;;2.70;;
12900;SDS011;6518;50.930;5.344;2023-07-13T05:59:35;7.97;;;2.40;;
12900;SDS011;6518;50.930;5.344;2023-07-13T06:02:02;28.33;;;3.95;;
12900;SDS011;6518;50.930;5.344;2023-07-13T06:04:29;18.88;;;3.28;;
12900;SDS011;6518;50.930;5.344;2023-07-13T06:06:56;11.10;;;2.65;;
12900;SDS011;6518;50.930;5.344;2023-07-13T06:09:23;13.88;;;3.42;;
12900;SDS011;6518;50.930;5.344;2023-07-13T06:11:51;11.60;;;2.97;;
12900;SDS011;6518;50.930;5.344;2023-07-13T06:14:18;11.43;;;3.05;;
12900;SDS011;6518;50.930;5.344;2023-07-13T06:16:45;6.80;;;2.50;;
12900;SDS011;6518;50.930;5.344;2023-07-13T06:19:12;29.33;;;4.22;;
12900;SDS011;6518;50.930;5.344;2023-07-13T06:21:39;9.65;;;2.72;;
12900;SDS011;6518;50.930;5.344;2023-07-13T06:24:06;13.70;;;3.38;;
12900;SDS011;6518;50.930;5.344;2023-07-13T06:26:33;11.73;;;3.13;;
12900;SDS011;6518;50.930;5.344;2023-07-13T06:29:01;10.00;;;2.83;;
12900;SDS011;6518;50.930;5.344;2023-07-13T06:31:28;11.40;;;2.97;;
12900;SDS011;6518;50.930;5.344;2023-07-13T06:33:55;14.20;;;2.65;;
12900;SDS011;6518;50.930;5.344;2023-07-13T06:36:22;32.15;;;4.30;;
12900;SDS011;6518;50.930;5.344;2023-07-13T06:38:49;14.43;;;3.30;;
12900;SDS011;6518;50.930;5.344;2023-07-13T06:41:15;16.10;;;3.05;;
12900;SDS011;6518;50.930;5.344;2023-07-13T06:43:43;24.92;;;3.80;;
12900;SDS011;6518;50.930;5.344;2023-07-13T06:46:11;9.75;;;2.70;;
12900;SDS011;6518;50.930;5.344;2023-07-13T06:48:38;9.75;;;3.53;;
12900;SDS011;6518;50.930;5.344;2023-07-13T06:51:05;10.13;;;2.85;;
12900;SDS011;6518;50.930;5.344;2023-07-13T06:53:32;9.07;;;2.95;;
12900;SDS011;6518;50.930;5.344;2023-07-13T06:55:59;10.40;;;2.80;;
12900;SDS011;6518;50.930;5.344;2023-07-13T06:58:26;18.95;;;3.40;;
12900;SDS011;6518;50.930;5.344;2023-07-13T07:00:53;16.15;;;3.72;;
12900;SDS011;6518;50.930;5.344;2023-07-13T07:03:21;11.55;;;3.22;;
12900;SDS011;6518;50.930;5.344;2023-07-13T07:05:48;9.60;;;2.72;;
12900;SDS011;6518;50.930;5.344;2023-07-13T07:08:15;16.85;;;3.25;;
12900;SDS011;6518;50.930;5.344;2023-07-13T07:10:44;13.82;;;5.55;;
12900;SDS011;6518;50.930;5.344;2023-07-13T07:13:12;12.18;;;3.50;;
12900;SDS011;6518;50.930;5.344;2023-07-13T07:15:39;12.38;;;3.15;;
12900;SDS011;6518;50.930;5.344;2023-07-13T07:18:06;10.52;;;3.05;;
12900;SDS011;6518;50.930;5.344;2023-07-13T07:20:34;12.23;;;3.45;;
12900;SDS011;6518;50.930;5.344;2023-07-13T07:23:04;17.67;;;3.70;;
12900;SDS011;6518;50.930;5.344;2023-07-13T07:25:32;10.30;;;3.15;;
12900;SDS011;6518;50.930;5.344;2023-07-13T07:28:02;17.75;;;3.30;;
12900;SDS011;6518;50.930;5.344;2023-07-13T07:30:29;9.90;;;2.80;;
12900;SDS011;6518;50.930;5.344;2023-07-13T07:32:57;10.52;;;3.10;;
12900;SDS011;6518;50.930;5.344;2023-07-13T07:35:24;7.90;;;2.55;;
12900;SDS011;6518;50.930;5.344;2023-07-13T07:37:52;11.75;;;3.20;;
12900;SDS011;6518;50.930;5.344;2023-07-13T07:40:19;9.02;;;2.92;;
12900;SDS011;6518;50.930;5.344;2023-07-13T07:42:47;9.73;;;2.65;;
12900;SDS011;6518;50.930;5.344;2023-07-13T07:45:14;10.35;;;3.13;;
12900;SDS011;6518;50.930;5.344;2023-07-13T07:47:41;9.80;;;2.95;;
12900;SDS011;6518;50.930;5.344;2023-07-13T07:50:08;17.35;;;3.45;;
12900;SDS011;6518;50.930;5.344;2023-07-13T07:52:36;12.52;;;2.67;;
12900;SDS011;6518;50.930;5.344;2023-07-13T07:55:05;10.07;;;2.60;;
12900;SDS011;6518;50.930;5.344;2023-07-13T07:57:33;13.55;;;3.10;;
12900;SDS011;6518;50.930;5.344;2023-07-13T08:00:00;11.52;;;2.90;;
12900;SDS011;6518;50.930;5.344;2023-07-13T08:02:27;9.55;;;2.65;;
12900;SDS011;6518;50.930;5.344;2023-07-13T08:04:54;13.27;;;2.92;;
12900;SDS011;6518;50.930;5.344;2023-07-13T08:07:21;9.95;;;2.92;;
12900;SDS011;6518;50.930;5.344;2023-07-13T08:09:48;13.68;;;3.00;;
12900;SDS011;6518;50.930;5.344;2023-07-13T08:12:19;9.60;;;2.60;;
12900;SDS011;6518;50.930;5.344;2023-07-13T08:14:49;9.60;;;2.88;;
12900;SDS011;6518;50.930;5.344;2023-07-13T08:17:18;8.85;;;2.80;;
12900;SDS011;6518;50.930;5.344;2023-07-13T08:19:46;10.93;;;2.83;;
12900;SDS011;6518;50.930;5.344;2023-07-13T08:22:13;9.57;;;3.25;;
12900;SDS011;6518;50.930;5.344;2023-07-13T08:24:40;10.40;;;2.75;;
12900;SDS011;6518;50.930;5.344;2023-07-13T08:27:07;9.38;;;2.70;;
12900;SDS011;6518;50.930;5.344;2023-07-13T08:29:36;7.40;;;2.55;;
12900;SDS011;6518;50.930;5.344;2023-07-13T08:32:03;11.50;;;2.90;;
12900;SDS011;6518;50.930;5.344;2023-07-13T08:34:32;8.73;;;2.63;;
12900;SDS011;6518;50.930;5.344;2023-07-13T08:36:59;7.82;;;2.60;;
12900;SDS011;6518;50.930;5.344;2023-07-13T08:39:27;9.43;;;3.00;;
12900;SDS011;6518;50.930;5.344;2023-07-13T08:41:55;10.52;;;2.75;;
12900;SDS011;6518;50.930;5.344;2023-07-13T08:44:27;5.88;;;2.17;;
12900;SDS011;6518;50.930;5.344;2023-07-13T08:47:06;7.97;;;2.70;;
12900;SDS011;6518;50.930;5.344;2023-07-13T08:49:36;9.45;;;2.80;;
12900;SDS011;6518;50.930;5.344;2023-07-13T08:52:04;10.95;;;2.90;;
12900;SDS011;6518;50.930;5.344;2023-07-13T08:54:37;9.27;;;2.70;;
12900;SDS011;6518;50.930;5.344;2023-07-13T08:57:09;11.45;;;2.90;;
12900;SDS011;6518;50.930;5.344;2023-07-13T08:59:40;12.48;;;2.90;;
12900;SDS011;6518;50.930;5.344;2023-07-13T09:02:14;8.65;;;2.65;;
12900;SDS011;6518;50.930;5.344;2023-07-13T09:04:49;8.85;;;2.85;;
12900;SDS011;6518;50.930;5.344;2023-07-13T09:07:23;9.02;;;3.03;;
12900;SDS011;6518;50.930;5.344;2023-07-13T09:10:02;10.07;;;2.72;;
12900;SDS011;6518;50.930;5.344;2023-07-13T09:12:40;7.75;;;2.17;;
12900;SDS011;6518;50.930;5.344;2023-07-13T09:15:21;8.55;;;2.40;;
12900;SDS011;6518;50.930;5.344;2023-07-13T09:17:53;6.07;;;2.28;;
12900;SDS011;6518;50.930;5.344;2023-07-13T09:20:26;7.32;;;2.40;;
12900;SDS011;6518;50.930;5.344;2023-07-13T09:22:57;7.78;;;3.00;;
12900;SDS011;6518;50.930;5.344;2023-07-13T09:25:28;7.55;;;2.28;;
12900;SDS011;6518;50.930;5.344;2023-07-13T09:27:58;8.23;;;2.75;;
12900;SDS011;6518;50.930;5.344;2023-07-13T09:30:30;8.73;;;2.60;;
12900;SDS011;6518;50.930;5.344;2023-07-13T09:33:04;6.80;;;2.38;;
12900;SDS011;6518;50.930;5.344;2023-07-13T09:35:31;9.98;;;2.83;;
12900;SDS011;6518;50.930;5.344;2023-07-13T09:37:59;8.15;;;2.30;;
12900;SDS011;6518;50.930;5.344;2023-07-13T09:40:35;8.50;;;2.30;;
12900;SDS011;6518;50.930;5.344;2023-07-13T09:43:08;5.40;;;2.08;;
12900;SDS011;6518;50.930;5.344;2023-07-13T09:45:39;8.45;;;2.40;;
12900;SDS011;6518;50.930;5.344;2023-07-13T09:48:12;7.72;;;2.65;;
12900;SDS011;6518;50.930;5.344;2023-07-13T09:50:41;7.88;;;2.75;;
12900;SDS011;6518;50.930;5.344;2023-07-13T09:53:13;4.28;;;1.92;;
12900;SDS011;6518;50.930;5.344;2023-07-13T09:55:42;9.63;;;2.60;;
12900;SDS011;6518;50.930;5.344;2023-07-13T09:58:11;8.30;;;2.40;;
12900;SDS011;6518;50.930;5.344;2023-07-13T10:00:41;6.40;;;2.15;;
12900;SDS011;6518;50.930;5.344;2023-07-13T10:03:21;6.05;;;2.35;;
12900;SDS011;6518;50.930;5.344;2023-07-13T10:05:49;8.50;;;1.85;;
12900;SDS011;6518;50.930;5.344;2023-07-13T10:08:19;7.47;;;2.40;;
12900;SDS011;6518;50.930;5.344;2023-07-13T10:10:52;3.85;;;2.00;;
12900;SDS011;6518;50.930;5.344;2023-07-13T10:13:31;6.05;;;2.15;;
12900;SDS011;6518;50.930;5.344;2023-07-13T10:16:02;6.90;;;2.05;;
12900;SDS011;6518;50.930;5.344;2023-07-13T10:18:34;6.47;;;1.92;;
12900;SDS011;6518;50.930;5.344;2023-07-13T10:21:12;7.78;;;1.90;;
12900;SDS011;6518;50.930;5.344;2023-07-13T10:23:41;7.63;;;2.20;;
12900;SDS011;6518;50.930;5.344;2023-07-13T10:26:15;6.55;;;2.00;;
12900;SDS011;6518;50.930;5.344;2023-07-13T10:28:47;6.03;;;1.90;;
12900;SDS011;6518;50.930;5.344;2023-07-13T10:31:20;6.55;;;2.03;;
12900;SDS011;6518;50.930;5.344;2023-07-13T10:33:50;7.70;;;1.80;;
12900;SDS011;6518;50.930;5.344;2023-07-13T10:36:19;6.35;;;2.00;;
12900;SDS011;6518;50.930;5.344;2023-07-13T10:39:05;8.25;;;2.08;;
12900;SDS011;6518;50.930;5.344;2023-07-13T10:41:35;6.93;;;2.05;;
12900;SDS011;6518;50.930;5.344;2023-07-13T10:44:09;6.85;;;2.00;;
12900;SDS011;6518;50.930;5.344;2023-07-13T10:46:43;5.45;;;1.92;;
12900;SDS011;6518;50.930;5.344;2023-07-13T10:49:12;6.00;;;1.92;;
12900;SDS011;6518;50.930;5.344;2023-07-13T10:51:41;10.30;;;2.33;;
12900;SDS011;6518;50.930;5.344;2023-07-13T10:54:19;7.18;;;2.13;;
12900;SDS011;6518;50.930;5.344;2023-07-13T10:56:49;6.63;;;1.95;;
12900;SDS011;6518;50.930;5.344;2023-07-13T10:59:23;5.57;;;2.00;;
12900;SDS011;6518;50.930;5.344;2023-07-13T11:01:55;6.05;;;2.20;;
12900;SDS011;6518;50.930;5.344;2023-07-13T11:04:41;13.80;;;2.63;;
12900;SDS011;6518;50.930;5.344;2023-07-13T11:07:11;6.75;;;2.08;;
12900;SDS011;6518;50.930;5.344;2023-07-13T11:09:48;8.75;;;2.60;;
12900;SDS011;6518;50.930;5.344;2023-07-13T11:12:27;13.73;;;2.50;;
12900;SDS011;6518;50.930;5.344;2023-07-13T11:15:31;5.00;;;1.75;;
12900;SDS011;6518;50.930;5.344;2023-07-13T11:18:19;6.05;;;2.17;;
12900;SDS011;6518;50.930;5.344;2023-07-13T11:20:49;9.57;;;2.20;;
12900;SDS011;6518;50.930;5.344;2023-07-13T11:23:20;6.60;;;1.55;;
12900;SDS011;6518;50.930;5.344;2023-07-13T11:25:58;4.53;;;1.95;;
12900;SDS011;6518;50.930;5.344;2023-07-13T11:28:30;8.10;;;1.85;;
12900;SDS011;6518;50.930;5.344;2023-07-13T11:31:02;5.38;;;1.63;;
12900;SDS011;6518;50.930;5.344;2023-07-13T11:33:51;8.35;;;2.13;;
12900;SDS011;6518;50.930;5.344;2023-07-13T11:36:36;4.93;;;1.70;;
12900;SDS011;6518;50.930;5.344;2023-07-13T11:39:12;4.10;;;1.63;;
12900;SDS011;6518;50.930;5.344;2023-07-13T11:41:45;6.25;;;2.53;;
12900;SDS011;6518;50.930;5.344;2023-07-13T11:44:18;6.75;;;2.30;;
12900;SDS011;6518;50.930;5.344;2023-07-13T11:46:47;4.50;;;1.55;;
12900;SDS011;6518;50.930;5.344;2023-07-13T11:49:16;7.95;;;2.13;;
12900;SDS011;6518;50.930;5.344;2023-07-13T11:51:46;7.38;;;1.90;;
12900;SDS011;6518;50.930;5.344;2023-07-13T11:54:19;6.82;;;1.85;;
12900;SDS011;6518;50.930;5.344;2023-07-13T11:56:51;4.55;;;1.70;;
12900;SDS011;6518;50.930;5.344;2023-07-13T11:59:19;5.82;;;1.80;;
12900;SDS011;6518;50.930;5.344;2023-07-13T12:01:47;3.63;;;1.33;;
12900;SDS011;6518;50.930;5.344;2023-07-13T12:04:19;6.43;;;2.13;;
12900;SDS011;6518;50.930;5.344;2023-07-13T12:06:54;4.03;;;1.42;;
12900;SDS011;6518;50.930;5.344;2023-07-13T12:09:25;6.78;;;1.60;;
12900;SDS011;6518;50.930;5.344;2023-07-13T12:11:53;3.28;;;1.48;;
12900;SDS011;6518;50.930;5.344;2023-07-13T12:14:20;4.93;;;1.60;;
12900;SDS011;6518;50.930;5.344;2023-07-13T12:16:49;5.60;;;1.63;;
12900;SDS011;6518;50.930;5.344;2023-07-13T12:19:17;5.30;;;1.95;;
12900;SDS011;6518;50.930;5.344;2023-07-13T12:21:46;4.70;;;1.67;;
12900;SDS011;6518;50.930;5.344;2023-07-13T12:24:16;3.88;;;1.45;;
12900;SDS011;6518;50.930;5.344;2023-07-13T12:26:44;6.45;;;1.52;;
12900;SDS011;6518;50.930;5.344;2023-07-13T12:29:17;6.35;;;2.08;;
12900;SDS011;6518;50.930;5.344;2023-07-13T12:31:45;5.57;;;1.45;;
12900;SDS011;6518;50.930;5.344;2023-07-13T12:34:14;4.70;;;1.30;;
12900;SDS011;6518;50.930;5.344;2023-07-13T12:36:45;6.80;;;1.70;;
12900;SDS011;6518;50.930;5.344;2023-07-13T12:39:17;7.72;;;1.67;;
12900;SDS011;6518;50.930;5.344;2023-07-13T12:41:46;4.85;;;1.60;;
12900;SDS011;6518;50.930;5.344;2023-07-13T12:44:17;3.70;;;1.40;;
12900;SDS011;6518;50.930;5.344;2023-07-13T12:46:55;3.97;;;1.50;;
12900;SDS011;6518;50.930;5.344;2023-07-13T12:49:25;6.57;;;1.45;;
12900;SDS011;6518;50.930;5.344;2023-07-13T12:51:58;4.63;;;1.33;;
12900;SDS011;6518;50.930;5.344;2023-07-13T12:54:29;4.93;;;1.40;;
12900;SDS011;6518;50.930;5.344;2023-07-13T12:56:57;4.80;;;1.58;;
12900;SDS011;6518;50.930;5.344;2023-07-13T12:59:29;8.75;;;1.75;;
12900;SDS011;6518;50.930;5.344;2023-07-13T13:02:01;3.08;;;1.30;;
12900;SDS011;6518;50.930;5.344;2023-07-13T13:04:31;6.40;;;1.48;;
12900;SDS011;6518;50.930;5.344;2023-07-13T13:07:02;3.55;;;1.30;;
12900;SDS011;6518;50.930;5.344;2023-07-13T13:09:33;4.95;;;1.33;;
12900;SDS011;6518;50.930;5.344;2023-07-13T13:11:59;4.03;;;1.80;;
12900;SDS011;6518;50.930;5.344;2023-07-13T13:14:26;6.63;;;1.50;;
12900;SDS011;6518;50.930;5.344;2023-07-13T13:16:53;3.53;;;1.80;;
12900;SDS011;6518;50.930;5.344;2023-07-13T13:19:21;2.92;;;1.60;;
12900;SDS011;6518;50.930;5.344;2023-07-13T13:21:50;2.50;;;1.33;;
12900;SDS011;6518;50.930;5.344;2023-07-13T13:24:19;5.43;;;1.67;;
12900;SDS011;6518;50.930;5.344;2023-07-13T13:26:49;4.45;;;1.55;;
12900;SDS011;6518;50.930;5.344;2023-07-13T13:29:18;2.58;;;1.30;;
12900;SDS011;6518;50.930;5.344;2023-07-13T13:31:46;7.65;;;1.83;;
12900;SDS011;6518;50.930;5.344;2023-07-13T13:34:14;7.22;;;1.40;;
12900;SDS011;6518;50.930;5.344;2023-07-13T13:36:42;3.38;;;1.83;;
12900;SDS011;6518;50.930;5.344;2023-07-13T13:39:16;3.22;;;1.88;;
12900;SDS011;6518;50.930;5.344;2023-07-13T13:41:46;3.28;;;1.60;;
12900;SDS011;6518;50.930;5.344;2023-07-13T13:44:15;4.25;;;1.70;;
12900;SDS011;6518;50.930;5.344;2023-07-13T13:46:43;2.70;;;1.33;;
12900;SDS011;6518;50.930;5.344;2023-07-13T13:49:13;3.17;;;1.70;;
12900;SDS011;6518;50.930;5.344;2023-07-13T13:51:42;5.57;;;1.90;;
12900;SDS011;6518;50.930;5.344;2023-07-13T13:54:10;5.35;;;1.92;;
12900;SDS011;6518;50.930;5.344;2023-07-13T13:56:40;7.15;;;2.13;;
12900;SDS011;6518;50.930;5.344;2023-07-13T13:59:09;3.22;;;1.73;;
12900;SDS011;6518;50.930;5.344;2023-07-13T14:01:36;2.40;;;1.60;;
12900;SDS011;6518;50.930;5.344;2023-07-13T14:04:03;4.68;;;1.90;;
12900;SDS011;6518;50.930;5.344;2023-07-13T14:06:31;5.10;;;1.77;;
12900;SDS011;6518;50.930;5.344;2023-07-13T14:08:59;2.10;;;1.70;;
12900;SDS011;6518;50.930;5.344;2023-07-13T14:11:27;2.55;;;1.58;;
12900;SDS011;6518;50.930;5.344;2023-07-13T14:13:58;3.45;;;1.60;;
12900;SDS011;6518;50.930;5.344;2023-07-13T14:16:29;2.53;;;1.67;;
12900;SDS011;6518;50.930;5.344;2023-07-13T14:18:57;3.35;;;1.80;;
12900;SDS011;6518;50.930;5.344;2023-07-13T14:21:26;1.67;;;1.48;;
12900;SDS011;6518;50.930;5.344;2023-07-13T14:23:54;3.17;;;1.65;;
12900;SDS011;6518;50.930;5.344;2023-07-13T14:26:22;3.65;;;1.90;;
12900;SDS011;6518;50.930;5.344;2023-07-13T14:28:51;4.15;;;1.83;;
12900;SDS011;6518;50.930;5.344;2023-07-13T14:31:20;4.10;;;1.98;;
12900;SDS011;6518;50.930;5.344;2023-07-13T14:33:49;3.60;;;1.80;;
12900;SDS011;6518;50.930;5.344;2023-07-13T14:36:26;3.75;;;1.98;;
12900;SDS011;6518;50.930;5.344;2023-07-13T14:38:55;7.40;;;1.90;;
12900;SDS011;6518;50.930;5.344;2023-07-13T14:41:23;4.05;;;1.92;;
12900;SDS011;6518;50.930;5.344;2023-07-13T14:43:50;4.20;;;1.80;;
12900;SDS011;6518;50.930;5.344;2023-07-13T14:46:20;4.15;;;2.08;;
12900;SDS011;6518;50.930;5.344;2023-07-13T14:48:55;3.78;;;1.92;;
12900;SDS011;6518;50.930;5.344;2023-07-13T14:51:27;4.07;;;1.50;;
12900;SDS011;6518;50.930;5.344;2023-07-13T14:53:54;7.47;;;1.90;;
12900;SDS011;6518;50.930;5.344;2023-07-13T14:56:20;2.97;;;1.80;;
12900;SDS011;6518;50.930;5.344;2023-07-13T14:58:47;3.97;;;2.10;;
12900;SDS011;6518;50.930;5.344;2023-07-13T15:01:14;3.80;;;1.85;;
12900;SDS011;6518;50.930;5.344;2023-07-13T15:03:43;5.97;;;1.92;;
12900;SDS011;6518;50.930;5.344;2023-07-13T15:06:15;3.28;;;1.58;;
12900;SDS011;6518;50.930;5.344;2023-07-13T15:08:44;3.10;;;1.70;;
12900;SDS011;6518;50.930;5.344;2023-07-13T15:11:11;5.15;;;1.20;;